sensor_id;sensor_type;location;lat;lon;timestamp;temperature;humidity
70456;DHT22;57916;51.996;5.180;2023-03-14T00:01:18;14.70;66.50
70456;DHT22;57916;51.996;5.180;2023-03-14T00:03:47;14.70;66.20
70456;DHT22;57916;51.996;5.180;2023-03-14T00:06:14;14.70;66.10
70456;DHT22;57916;51.996;5.180;2023-03-14T00:08:42;14.70;66.30
70456;DHT22;57916;51.996;5.180;2023-03-14T00:11:15;14.70;66.30
70456;DHT22;57916;51.996;5.180;2023-03-14T00:13:43;14.70;66.20
70456;DHT22;57916;51.996;5.180;2023-03-14T00:16:12;14.70;66.10
70456;DHT22;57916;51.996;5.180;2023-03-14T00:18:39;14.60;65.60
70456;DHT22;57916;51.996;5.180;2023-03-14T00:21:08;14.60;65.80
70456;DHT22;57916;51.996;5.180;2023-03-14T00:23:37;14.50;66.60
70456;DHT22;57916;51.996;5.180;2023-03-14T00:26:06;14.50;67.00
70456;DHT22;57916;51.996;5.180;2023-03-14T00:28:34;14.40;67.00
70456;DHT22;57916;51.996;5.180;2023-03-14T00:31:09;14.40;66.90
70456;DHT22;57916;51.996;5.180;2023-03-14T00:33:36;14.40;66.80
70456;DHT22;57916;51.996;5.180;2023-03-14T00:36:08;14.40;66.70
70456;DHT22;57916;51.996;5.180;2023-03-14T00:38:37;14.40;66.70
70456;DHT22;57916;51.996;5.180;2023-03-14T00:41:12;14.40;67.70
70456;DHT22;57916;51.996;5.180;2023-03-14T00:43:40;14.40;66.90
70456;DHT22;57916;51.996;5.180;2023-03-14T00:46:08;14.40;66.80
70456;DHT22;57916;51.996;5.180;2023-03-14T00:48:35;14.30;66.60
70456;DHT22;57916;51.996;5.180;2023-03-14T00:51:04;14.30;66.90
70456;DHT22;57916;51.996;5.180;2023-03-14T00:53:35;14.20;67.30
70456;DHT22;57916;51.996;5.180;2023-03-14T00:56:03;14.20;67.50
70456;DHT22;57916;51.996;5.180;2023-03-14T00:58:30;14.20;67.60
70456;DHT22;57916;51.996;5.180;2023-03-14T01:00:58;14.10;67.80
70456;DHT22;57916;51.996;5.180;2023-03-14T01:03:25;14.10;68.50
70456;DHT22;57916;51.996;5.180;2023-03-14T01:05:52;14.00;68.80
70456;DHT22;57916;51.996;5.180;2023-03-14T01:08:18;14.00;69.30
70456;DHT22;57916;51.996;5.180;2023-03-14T01:10:45;13.90;70.00
70456;DHT22;57916;51.996;5.180;2023-03-14T01:13:12;13.90;70.60
70456;DHT22;57916;51.996;5.180;2023-03-14T01:15:39;13.80;72.20
70456;DHT22;57916;51.996;5.180;2023-03-14T01:18:09;13.70;72.00
70456;DHT22;57916;51.996;5.180;2023-03-14T01:20:37;13.60;72.50
70456;DHT22;57916;51.996;5.180;2023-03-14T01:23:04;13.50;73.00
70456;DHT22;57916;51.996;5.180;2023-03-14T01:25:31;13.50;73.40
70456;DHT22;57916;51.996;5.180;2023-03-14T01:27:58;13.40;73.50
70456;DHT22;57916;51.996;5.180;2023-03-14T01:30:26;13.40;73.70
70456;DHT22;57916;51.996;5.180;2023-03-14T01:32:53;13.40;73.90
70456;DHT22;57916;51.996;5.180;2023-03-14T01:35:20;13.30;74.00
70456;DHT22;57916;51.996;5.180;2023-03-14T01:37:47;13.30;74.10
70456;DHT22;57916;51.996;5.180;2023-03-14T01:40:19;13.30;74.10
70456;DHT22;57916;51.996;5.180;2023-03-14T01:42:53;13.30;74.10
70456;DHT22;57916;51.996;5.180;2023-03-14T01:48:59;13.30;73.90
70456;DHT22;57916;51.996;5.180;2023-03-14T01:54:07;13.30;73.80
70456;DHT22;57916;51.996;5.180;2023-03-14T01:56:35;13.30;74.00
70456;DHT22;57916;51.996;5.180;2023-03-14T01:59:06;13.30;74.00
70456;DHT22;57916;51.996;5.180;2023-03-14T02:01:35;13.30;74.00
70456;DHT22;57916;51.996;5.180;2023-03-14T02:04:04;13.30;74.00
70456;DHT22;57916;51.996;5.180;2023-03-14T02:06:50;13.20;74.10
70456;DHT22;57916;51.996;5.180;2023-03-14T02:09:20;13.20;74.30
70456;DHT22;57916;51.996;5.180;2023-03-14T02:11:47;13.20;74.30
70456;DHT22;57916;51.996;5.180;2023-03-14T02:14:36;13.10;74.40
70456;DHT22;57916;51.996;5.180;2023-03-14T02:17:18;13.10;74.40
70456;DHT22;57916;51.996;5.180;2023-03-14T02:22:39;13.10;74.70
70456;DHT22;57916;51.996;5.180;2023-03-14T02:25:13;13.10;74.80
70456;DHT22;57916;51.996;5.180;2023-03-14T02:27:43;13.10;74.90
70456;DHT22;57916;51.996;5.180;2023-03-14T02:30:19;13.10;74.90
70456;DHT22;57916;51.996;5.180;2023-03-14T02:32:51;13.10;75.00
70456;DHT22;57916;51.996;5.180;2023-03-14T02:35:21;13.10;74.90
70456;DHT22;57916;51.996;5.180;2023-03-14T02:37:55;13.10;74.90
70456;DHT22;57916;51.996;5.180;2023-03-14T02:40:24;13.10;74.90
70456;DHT22;57916;51.996;5.180;2023-03-14T02:42:52;13.10;75.00
70456;DHT22;57916;51.996;5.180;2023-03-14T02:47:57;13.10;75.20
70456;DHT22;57916;51.996;5.180;2023-03-14T02:50:31;13.10;75.30
70456;DHT22;57916;51.996;5.180;2023-03-14T02:53:00;13.10;75.50
70456;DHT22;57916;51.996;5.180;2023-03-14T02:55:27;13.10;75.50
70456;DHT22;57916;51.996;5.180;2023-03-14T02:57:58;13.00;75.40
70456;DHT22;57916;51.996;5.180;2023-03-14T03:00:25;13.00;75.40
70456;DHT22;57916;51.996;5.180;2023-03-14T03:02:52;13.00;75.20
70456;DHT22;57916;51.996;5.180;2023-03-14T03:05:19;13.10;75.10
70456;DHT22;57916;51.996;5.180;2023-03-14T03:07:46;13.10;75.00
70456;DHT22;57916;51.996;5.180;2023-03-14T03:10:13;13.10;74.90
70456;DHT22;57916;51.996;5.180;2023-03-14T03:12:41;13.10;74.80
70456;DHT22;57916;51.996;5.180;2023-03-14T03:15:08;13.10;75.10
70456;DHT22;57916;51.996;5.180;2023-03-14T03:17:36;13.10;74.70
70456;DHT22;57916;51.996;5.180;2023-03-14T03:20:05;13.10;74.70
70456;DHT22;57916;51.996;5.180;2023-03-14T03:22:38;13.20;74.70
70456;DHT22;57916;51.996;5.180;2023-03-14T03:25:07;13.20;74.40
70456;DHT22;57916;51.996;5.180;2023-03-14T03:27:35;13.20;74.20
70456;DHT22;57916;51.996;5.180;2023-03-14T03:30:04;13.20;74.10
70456;DHT22;57916;51.996;5.180;2023-03-14T03:32:33;13.20;73.90
70456;DHT22;57916;51.996;5.180;2023-03-14T03:35:01;13.30;73.70
70456;DHT22;57916;51.996;5.180;2023-03-14T03:37:31;13.30;73.70
70456;DHT22;57916;51.996;5.180;2023-03-14T03:39:58;13.30;73.60
70456;DHT22;57916;51.996;5.180;2023-03-14T03:42:27;13.30;73.30
70456;DHT22;57916;51.996;5.180;2023-03-14T03:44:54;13.30;73.30
70456;DHT22;57916;51.996;5.180;2023-03-14T03:47:22;13.30;73.10
70456;DHT22;57916;51.996;5.180;2023-03-14T03:49:49;13.30;73.00
70456;DHT22;57916;51.996;5.180;2023-03-14T03:52:16;13.30;73.00
70456;DHT22;57916;51.996;5.180;2023-03-14T03:54:43;13.30;73.00
70456;DHT22;57916;51.996;5.180;2023-03-14T03:57:10;13.30;72.80
70456;DHT22;57916;51.996;5.180;2023-03-14T03:59:37;13.30;72.80
70456;DHT22;57916;51.996;5.180;2023-03-14T04:02:07;13.30;73.60
70456;DHT22;57916;51.996;5.180;2023-03-14T04:04:34;13.40;72.70
70456;DHT22;57916;51.996;5.180;2023-03-14T04:07:02;13.40;72.70
70456;DHT22;57916;51.996;5.180;2023-03-14T04:09:30;13.40;72.60
70456;DHT22;57916;51.996;5.180;2023-03-14T04:12:08;13.40;72.50
70456;DHT22;57916;51.996;5.180;2023-03-14T04:15:10;13.40;72.50
70456;DHT22;57916;51.996;5.180;2023-03-14T04:17:40;13.40;72.70
70456;DHT22;57916;51.996;5.180;2023-03-14T04:20:08;13.40;72.60
70456;DHT22;57916;51.996;5.180;2023-03-14T04:22:39;13.40;72.60
70456;DHT22;57916;51.996;5.180;2023-03-14T04:25:09;13.40;72.50
70456;DHT22;57916;51.996;5.180;2023-03-14T04:27:41;13.40;72.70
70456;DHT22;57916;51.996;5.180;2023-03-14T04:30:17;13.40;72.60
70456;DHT22;57916;51.996;5.180;2023-03-14T04:32:50;13.50;72.70
70456;DHT22;57916;51.996;5.180;2023-03-14T04:35:18;13.50;72.70
70456;DHT22;57916;51.996;5.180;2023-03-14T04:37:45;13.50;73.70
70456;DHT22;57916;51.996;5.180;2023-03-14T04:40:16;13.50;72.60
70456;DHT22;57916;51.996;5.180;2023-03-14T04:42:44;13.50;72.70
70456;DHT22;57916;51.996;5.180;2023-03-14T04:45:12;13.50;72.60
70456;DHT22;57916;51.996;5.180;2023-03-14T04:47:41;13.50;72.60
70456;DHT22;57916;51.996;5.180;2023-03-14T04:50:11;13.60;72.70
70456;DHT22;57916;51.996;5.180;2023-03-14T04:52:39;13.50;73.60
70456;DHT22;57916;51.996;5.180;2023-03-14T04:55:06;13.50;72.70
70456;DHT22;57916;51.996;5.180;2023-03-14T04:57:33;13.50;72.70
70456;DHT22;57916;51.996;5.180;2023-03-14T05:00:00;13.50;72.90
70456;DHT22;57916;51.996;5.180;2023-03-14T05:02:49;13.50;72.80
70456;DHT22;57916;51.996;5.180;2023-03-14T05:05:34;13.60;72.90
70456;DHT22;57916;51.996;5.180;2023-03-14T05:08:13;13.50;73.00
70456;DHT22;57916;51.996;5.180;2023-03-14T05:10:55;13.60;72.80
70456;DHT22;57916;51.996;5.180;2023-03-14T05:13:41;13.50;72.90
70456;DHT22;57916;51.996;5.180;2023-03-14T05:16:33;13.50;73.20
70456;DHT22;57916;51.996;5.180;2023-03-14T05:19:20;13.50;73.30
70456;DHT22;57916;51.996;5.180;2023-03-14T05:22:26;13.40;73.70
70456;DHT22;57916;51.996;5.180;2023-03-14T05:25:14;13.40;74.00
70456;DHT22;57916;51.996;5.180;2023-03-14T05:28:10;13.40;74.20
70456;DHT22;57916;51.996;5.180;2023-03-14T05:30:48;13.40;74.40
70456;DHT22;57916;51.996;5.180;2023-03-14T05:33:38;13.40;74.50
70456;DHT22;57916;51.996;5.180;2023-03-14T05:36:21;13.40;74.60
70456;DHT22;57916;51.996;5.180;2023-03-14T05:39:11;13.40;74.80
70456;DHT22;57916;51.996;5.180;2023-03-14T05:41:47;13.30;75.00
70456;DHT22;57916;51.996;5.180;2023-03-14T05:44:17;13.30;75.20
70456;DHT22;57916;51.996;5.180;2023-03-14T05:47:19;13.30;75.40
70456;DHT22;57916;51.996;5.180;2023-03-14T05:50:09;13.20;75.60
70456;DHT22;57916;51.996;5.180;2023-03-14T05:53:00;13.20;75.90
70456;DHT22;57916;51.996;5.180;2023-03-14T05:55:55;13.20;76.30
70456;DHT22;57916;51.996;5.180;2023-03-14T05:58:50;13.10;76.30
70456;DHT22;57916;51.996;5.180;2023-03-14T06:01:37;13.10;76.70
70456;DHT22;57916;51.996;5.180;2023-03-14T06:04:13;13.10;76.80
70456;DHT22;57916;51.996;5.180;2023-03-14T06:06:40;13.10;76.90
70456;DHT22;57916;51.996;5.180;2023-03-14T06:09:09;13.10;77.00
70456;DHT22;57916;51.996;5.180;2023-03-14T06:11:38;13.10;77.10
70456;DHT22;57916;51.996;5.180;2023-03-14T06:14:06;13.10;77.20
70456;DHT22;57916;51.996;5.180;2023-03-14T06:16:33;13.10;77.40
70456;DHT22;57916;51.996;5.180;2023-03-14T06:19:00;13.10;77.40
70456;DHT22;57916;51.996;5.180;2023-03-14T06:21:28;13.10;77.40
70456;DHT22;57916;51.996;5.180;2023-03-14T06:23:56;13.10;77.60
70456;DHT22;57916;51.996;5.180;2023-03-14T06:26:25;13.10;77.80
70456;DHT22;57916;51.996;5.180;2023-03-14T06:28:52;13.10;78.00
70456;DHT22;57916;51.996;5.180;2023-03-14T06:31:20;13.10;78.00
70456;DHT22;57916;51.996;5.180;2023-03-14T06:33:52;13.00;76.50
70456;DHT22;57916;51.996;5.180;2023-03-14T06:36:20;12.90;75.40
70456;DHT22;57916;51.996;5.180;2023-03-14T06:38:48;12.90;74.80
70456;DHT22;57916;51.996;5.180;2023-03-14T06:41:15;12.90;74.50
70456;DHT22;57916;51.996;5.180;2023-03-14T06:43:44;12.80;74.40
70456;DHT22;57916;51.996;5.180;2023-03-14T06:46:12;12.80;74.40
70456;DHT22;57916;51.996;5.180;2023-03-14T06:48:42;12.80;74.40
70456;DHT22;57916;51.996;5.180;2023-03-14T06:51:09;12.70;74.40
70456;DHT22;57916;51.996;5.180;2023-03-14T06:53:36;12.70;74.40
70456;DHT22;57916;51.996;5.180;2023-03-14T06:56:03;12.60;74.40
70456;DHT22;57916;51.996;5.180;2023-03-14T06:58:32;12.60;74.70
70456;DHT22;57916;51.996;5.180;2023-03-14T07:01:00;12.50;74.70
70456;DHT22;57916;51.996;5.180;2023-03-14T07:03:32;12.50;74.70
70456;DHT22;57916;51.996;5.180;2023-03-14T07:06:00;12.50;74.80
70456;DHT22;57916;51.996;5.180;2023-03-14T07:08:27;12.40;74.90
70456;DHT22;57916;51.996;5.180;2023-03-14T07:10:56;12.40;75.10
70456;DHT22;57916;51.996;5.180;2023-03-14T07:13:23;12.40;75.10
70456;DHT22;57916;51.996;5.180;2023-03-14T07:15:59;12.30;75.20
70456;DHT22;57916;51.996;5.180;2023-03-14T07:18:26;12.30;75.40
70456;DHT22;57916;51.996;5.180;2023-03-14T07:20:54;12.20;75.30
70456;DHT22;57916;51.996;5.180;2023-03-14T07:23:21;12.20;75.50
70456;DHT22;57916;51.996;5.180;2023-03-14T07:25:51;12.20;75.70
70456;DHT22;57916;51.996;5.180;2023-03-14T07:28:22;12.10;75.80
70456;DHT22;57916;51.996;5.180;2023-03-14T07:30:56;12.10;75.80
70456;DHT22;57916;51.996;5.180;2023-03-14T07:33:28;12.10;75.80
70456;DHT22;57916;51.996;5.180;2023-03-14T07:35:55;12.20;75.70
70456;DHT22;57916;51.996;5.180;2023-03-14T07:38:22;12.10;75.40
70456;DHT22;57916;51.996;5.180;2023-03-14T07:41:09;12.20;75.30
70456;DHT22;57916;51.996;5.180;2023-03-14T07:43:43;12.20;75.20
70456;DHT22;57916;51.996;5.180;2023-03-14T07:46:10;12.20;75.20
70456;DHT22;57916;51.996;5.180;2023-03-14T07:48:36;12.20;75.10
70456;DHT22;57916;51.996;5.180;2023-03-14T07:51:03;12.30;75.10
70456;DHT22;57916;51.996;5.180;2023-03-14T07:53:30;12.30;75.00
70456;DHT22;57916;51.996;5.180;2023-03-14T07:55:57;12.30;74.60
70456;DHT22;57916;51.996;5.180;2023-03-14T07:58:24;12.30;74.60
70456;DHT22;57916;51.996;5.180;2023-03-14T08:00:51;12.30;74.40
70456;DHT22;57916;51.996;5.180;2023-03-14T08:03:19;12.40;74.20
70456;DHT22;57916;51.996;5.180;2023-03-14T08:05:49;12.30;74.00
70456;DHT22;57916;51.996;5.180;2023-03-14T08:08:17;12.40;74.00
70456;DHT22;57916;51.996;5.180;2023-03-14T08:10:45;12.40;74.10
70456;DHT22;57916;51.996;5.180;2023-03-14T08:13:13;12.40;73.80
70456;DHT22;57916;51.996;5.180;2023-03-14T08:15:40;12.30;73.30
70456;DHT22;57916;51.996;5.180;2023-03-14T08:18:07;12.30;73.10
70456;DHT22;57916;51.996;5.180;2023-03-14T08:20:35;12.30;73.10
70456;DHT22;57916;51.996;5.180;2023-03-14T08:23:02;12.20;73.00
70456;DHT22;57916;51.996;5.180;2023-03-14T08:25:29;12.10;73.20
70456;DHT22;57916;51.996;5.180;2023-03-14T08:27:57;12.00;72.40
70456;DHT22;57916;51.996;5.180;2023-03-14T08:30:24;11.70;71.90
70456;DHT22;57916;51.996;5.180;2023-03-14T08:32:51;11.50;72.00
70456;DHT22;57916;51.996;5.180;2023-03-14T08:35:20;11.40;72.20
70456;DHT22;57916;51.996;5.180;2023-03-14T08:37:47;11.20;72.60
70456;DHT22;57916;51.996;5.180;2023-03-14T08:40:14;11.10;73.00
70456;DHT22;57916;51.996;5.180;2023-03-14T08:42:42;11.00;73.60
70456;DHT22;57916;51.996;5.180;2023-03-14T08:45:11;11.00;73.50
70456;DHT22;57916;51.996;5.180;2023-03-14T08:47:39;11.00;73.30
70456;DHT22;57916;51.996;5.180;2023-03-14T08:50:07;11.00;73.50
70456;DHT22;57916;51.996;5.180;2023-03-14T08:52:34;10.90;73.10
70456;DHT22;57916;51.996;5.180;2023-03-14T08:55:00;10.80;72.80
70456;DHT22;57916;51.996;5.180;2023-03-14T08:57:27;10.80;72.70
70456;DHT22;57916;51.996;5.180;2023-03-14T08:59:56;10.80;73.00
70456;DHT22;57916;51.996;5.180;2023-03-14T09:02:24;10.80;72.80
70456;DHT22;57916;51.996;5.180;2023-03-14T09:04:52;10.80;72.20
70456;DHT22;57916;51.996;5.180;2023-03-14T09:07:19;10.90;72.50
70456;DHT22;57916;51.996;5.180;2023-03-14T09:09:46;10.90;72.20
70456;DHT22;57916;51.996;5.180;2023-03-14T09:12:13;11.00;72.10
70456;DHT22;57916;51.996;5.180;2023-03-14T09:14:40;11.10;71.90
70456;DHT22;57916;51.996;5.180;2023-03-14T09:17:07;11.20;71.80
70456;DHT22;57916;51.996;5.180;2023-03-14T09:19:34;11.20;71.60
70456;DHT22;57916;51.996;5.180;2023-03-14T09:22:02;11.20;71.00
70456;DHT22;57916;51.996;5.180;2023-03-14T09:24:29;11.30;70.70
70456;DHT22;57916;51.996;5.180;2023-03-14T09:26:56;11.30;70.00
70456;DHT22;57916;51.996;5.180;2023-03-14T09:29:24;11.30;70.30
70456;DHT22;57916;51.996;5.180;2023-03-14T09:31:51;11.40;70.20
70456;DHT22;57916;51.996;5.180;2023-03-14T09:34:18;11.40;69.20
70456;DHT22;57916;51.996;5.180;2023-03-14T09:36:45;11.40;68.40
70456;DHT22;57916;51.996;5.180;2023-03-14T09:39:12;11.40;69.20
70456;DHT22;57916;51.996;5.180;2023-03-14T09:41:42;11.30;68.50
70456;DHT22;57916;51.996;5.180;2023-03-14T09:46:46;11.40;68.50
70456;DHT22;57916;51.996;5.180;2023-03-14T09:49:37;11.40;68.80
70456;DHT22;57916;51.996;5.180;2023-03-14T09:52:15;11.40;68.80
70456;DHT22;57916;51.996;5.180;2023-03-14T09:54:58;11.40;68.70
70456;DHT22;57916;51.996;5.180;2023-03-14T09:57:27;11.40;69.30
70456;DHT22;57916;51.996;5.180;2023-03-14T10:00:02;11.40;69.00
70456;DHT22;57916;51.996;5.180;2023-03-14T10:02:43;11.40;68.80
70456;DHT22;57916;51.996;5.180;2023-03-14T10:05:17;11.30;68.80
70456;DHT22;57916;51.996;5.180;2023-03-14T10:07:45;11.30;69.50
70456;DHT22;57916;51.996;5.180;2023-03-14T10:10:20;11.40;69.40
70456;DHT22;57916;51.996;5.180;2023-03-14T10:12:56;11.50;70.20
70456;DHT22;57916;51.996;5.180;2023-03-14T10:15:30;11.50;69.20
70456;DHT22;57916;51.996;5.180;2023-03-14T10:18:00;11.50;68.60
70456;DHT22;57916;51.996;5.180;2023-03-14T10:20:41;11.40;68.50
70456;DHT22;57916;51.996;5.180;2023-03-14T10:25:41;11.30;68.70
70456;DHT22;57916;51.996;5.180;2023-03-14T10:28:27;11.20;68.40
70456;DHT22;57916;51.996;5.180;2023-03-14T10:30:56;11.00;69.00
70456;DHT22;57916;51.996;5.180;2023-03-14T10:33:24;11.00;69.30
70456;DHT22;57916;51.996;5.180;2023-03-14T10:35:59;10.90;69.80
70456;DHT22;57916;51.996;5.180;2023-03-14T10:38:35;11.00;70.40
70456;DHT22;57916;51.996;5.180;2023-03-14T10:41:19;11.00;70.00
70456;DHT22;57916;51.996;5.180;2023-03-14T10:43:59;11.00;70.00
70456;DHT22;57916;51.996;5.180;2023-03-14T10:46:30;11.20;69.20
70456;DHT22;57916;51.996;5.180;2023-03-14T10:49:31;11.20;68.70
70456;DHT22;57916;51.996;5.180;2023-03-14T10:52:23;11.20;67.50
70456;DHT22;57916;51.996;5.180;2023-03-14T10:55:11;11.30;68.50
70456;DHT22;57916;51.996;5.180;2023-03-14T10:57:40;11.50;68.60
70456;DHT22;57916;51.996;5.180;2023-03-14T11:00:22;11.70;67.70
70456;DHT22;57916;51.996;5.180;2023-03-14T11:08:15;11.60;65.50
70456;DHT22;57916;51.996;5.180;2023-03-14T11:10:49;11.20;65.00
70456;DHT22;57916;51.996;5.180;2023-03-14T11:16:14;10.80;66.40
70456;DHT22;57916;51.996;5.180;2023-03-14T11:21:13;10.80;67.60
70456;DHT22;57916;51.996;5.180;2023-03-14T11:24:03;10.90;68.30
70456;DHT22;57916;51.996;5.180;2023-03-14T11:26:42;11.00;68.00
70456;DHT22;57916;51.996;5.180;2023-03-14T11:32:00;11.20;66.70
70456;DHT22;57916;51.996;5.180;2023-03-14T11:34:34;11.50;67.80
70456;DHT22;57916;51.996;5.180;2023-03-14T11:37:13;11.70;66.20
70456;DHT22;57916;51.996;5.180;2023-03-14T11:39:45;12.00;65.90
70456;DHT22;57916;51.996;5.180;2023-03-14T11:42:16;12.30;64.30
70456;DHT22;57916;51.996;5.180;2023-03-14T11:44:47;12.50;64.00
70456;DHT22;57916;51.996;5.180;2023-03-14T11:47:31;12.70;63.20
70456;DHT22;57916;51.996;5.180;2023-03-14T11:50:23;12.80;62.10
70456;DHT22;57916;51.996;5.180;2023-03-14T11:52:58;12.90;60.80
70456;DHT22;57916;51.996;5.180;2023-03-14T11:55:35;12.90;59.40
70456;DHT22;57916;51.996;5.180;2023-03-14T11:58:25;12.90;57.90
70456;DHT22;57916;51.996;5.180;2023-03-14T12:00:54;12.80;56.60
70456;DHT22;57916;51.996;5.180;2023-03-14T12:03:29;12.80;57.20
70456;DHT22;57916;51.996;5.180;2023-03-14T12:06:24;12.80;56.30
70456;DHT22;57916;51.996;5.180;2023-03-14T12:08:57;12.70;53.90
70456;DHT22;57916;51.996;5.180;2023-03-14T12:13:54;12.60;53.30
70456;DHT22;57916;51.996;5.180;2023-03-14T12:16:34;12.60;52.50
70456;DHT22;57916;51.996;5.180;2023-03-14T12:21:52;12.60;52.60
70456;DHT22;57916;51.996;5.180;2023-03-14T12:24:23;12.70;51.50
70456;DHT22;57916;51.996;5.180;2023-03-14T12:27:02;12.70;51.80
70456;DHT22;57916;51.996;5.180;2023-03-14T12:29:30;12.80;52.10
70456;DHT22;57916;51.996;5.180;2023-03-14T12:34:32;12.80;52.60
70456;DHT22;57916;51.996;5.180;2023-03-14T12:42:10;12.90;48.90
70456;DHT22;57916;51.996;5.180;2023-03-14T12:44:42;12.90;48.30
70456;DHT22;57916;51.996;5.180;2023-03-14T12:49:47;12.80;49.80
70456;DHT22;57916;51.996;5.180;2023-03-14T12:52:42;12.80;49.90
70456;DHT22;57916;51.996;5.180;2023-03-14T12:55:24;12.90;50.00
70456;DHT22;57916;51.996;5.180;2023-03-14T12:58:17;12.90;51.20
70456;DHT22;57916;51.996;5.180;2023-03-14T13:00:55;12.90;50.30
70456;DHT22;57916;51.996;5.180;2023-03-14T13:03:26;13.00;49.90
70456;DHT22;57916;51.996;5.180;2023-03-14T13:06:00;13.00;48.60
70456;DHT22;57916;51.996;5.180;2023-03-14T13:08:44;13.00;48.60
70456;DHT22;57916;51.996;5.180;2023-03-14T13:11:19;13.00;47.30
70456;DHT22;57916;51.996;5.180;2023-03-14T13:13:56;13.00;46.20
70456;DHT22;57916;51.996;5.180;2023-03-14T13:16:23;12.90;45.50
70456;DHT22;57916;51.996;5.180;2023-03-14T13:19:02;12.70;44.60
70456;DHT22;57916;51.996;5.180;2023-03-14T13:21:35;12.60;44.40
70456;DHT22;57916;51.996;5.180;2023-03-14T13:24:20;12.60;44.20
70456;DHT22;57916;51.996;5.180;2023-03-14T13:26:47;12.50;45.10
70456;DHT22;57916;51.996;5.180;2023-03-14T13:31:53;12.40;45.00
70456;DHT22;57916;51.996;5.180;2023-03-14T13:34:20;12.30;45.80
70456;DHT22;57916;51.996;5.180;2023-03-14T13:36:51;12.20;45.30
70456;DHT22;57916;51.996;5.180;2023-03-14T13:39:20;12.10;45.60
70456;DHT22;57916;51.996;5.180;2023-03-14T13:41:52;12.10;46.70
70456;DHT22;57916;51.996;5.180;2023-03-14T13:44:34;12.10;47.20
70456;DHT22;57916;51.996;5.180;2023-03-14T13:47:03;12.10;46.60
70456;DHT22;57916;51.996;5.180;2023-03-14T13:49:32;12.10;46.60
70456;DHT22;57916;51.996;5.180;2023-03-14T13:52:03;12.20;47.90
70456;DHT22;57916;51.996;5.180;2023-03-14T13:54:31;12.30;47.90
70456;DHT22;57916;51.996;5.180;2023-03-14T13:57:02;12.30;47.60
70456;DHT22;57916;51.996;5.180;2023-03-14T13:59:31;12.40;47.00
70456;DHT22;57916;51.996;5.180;2023-03-14T14:02:01;12.40;47.30
70456;DHT22;57916;51.996;5.180;2023-03-14T14:04:33;12.50;47.30
70456;DHT22;57916;51.996;5.180;2023-03-14T14:07:07;12.50;47.10
70456;DHT22;57916;51.996;5.180;2023-03-14T14:09:39;12.40;46.00
70456;DHT22;57916;51.996;5.180;2023-03-14T14:14:48;12.40;45.10
70456;DHT22;57916;51.996;5.180;2023-03-14T14:17:20;12.30;44.80
70456;DHT22;57916;51.996;5.180;2023-03-14T14:19:48;12.20;46.30
70456;DHT22;57916;51.996;5.180;2023-03-14T14:22:16;12.20;45.40
70456;DHT22;57916;51.996;5.180;2023-03-14T14:24:44;12.20;45.00
70456;DHT22;57916;51.996;5.180;2023-03-14T14:27:16;12.10;45.40
70456;DHT22;57916;51.996;5.180;2023-03-14T14:29:44;12.00;46.00
70456;DHT22;57916;51.996;5.180;2023-03-14T14:32:22;12.00;45.90
70456;DHT22;57916;51.996;5.180;2023-03-14T14:34:57;12.00;45.00
70456;DHT22;57916;51.996;5.180;2023-03-14T14:37:26;12.00;44.30
70456;DHT22;57916;51.996;5.180;2023-03-14T14:39:59;12.00;44.00
70456;DHT22;57916;51.996;5.180;2023-03-14T14:42:29;11.90;44.00
70456;DHT22;57916;51.996;5.180;2023-03-14T14:44:59;11.90;43.90
70456;DHT22;57916;51.996;5.180;2023-03-14T14:47:29;11.80;43.90
70456;DHT22;57916;51.996;5.180;2023-03-14T14:49:59;11.80;44.30
70456;DHT22;57916;51.996;5.180;2023-03-14T14:55:00;11.80;44.90
70456;DHT22;57916;51.996;5.180;2023-03-14T14:57:31;11.80;45.20
70456;DHT22;57916;51.996;5.180;2023-03-14T15:00:05;11.70;45.20
70456;DHT22;57916;51.996;5.180;2023-03-14T15:02:44;11.70;46.50
70456;DHT22;57916;51.996;5.180;2023-03-14T15:07:44;11.70;47.60
70456;DHT22;57916;51.996;5.180;2023-03-14T15:10:13;11.70;46.80
70456;DHT22;57916;51.996;5.180;2023-03-14T15:12:41;11.60;45.00
70456;DHT22;57916;51.996;5.180;2023-03-14T15:15:08;11.60;44.20
70456;DHT22;57916;51.996;5.180;2023-03-14T15:17:36;11.60;45.80
70456;DHT22;57916;51.996;5.180;2023-03-14T15:20:05;11.50;44.30
70456;DHT22;57916;51.996;5.180;2023-03-14T15:22:33;11.50;45.20
70456;DHT22;57916;51.996;5.180;2023-03-14T15:24:59;11.60;44.00
70456;DHT22;57916;51.996;5.180;2023-03-14T15:27:28;11.50;44.00
70456;DHT22;57916;51.996;5.180;2023-03-14T15:29:57;11.50;44.20
70456;DHT22;57916;51.996;5.180;2023-03-14T15:32:24;11.50;44.30
70456;DHT22;57916;51.996;5.180;2023-03-14T15:34:50;11.50;43.90
70456;DHT22;57916;51.996;5.180;2023-03-14T15:37:17;11.50;45.00
70456;DHT22;57916;51.996;5.180;2023-03-14T15:39:45;11.50;45.10
70456;DHT22;57916;51.996;5.180;2023-03-14T15:42:12;11.50;45.60
70456;DHT22;57916;51.996;5.180;2023-03-14T15:44:39;11.50;45.70
70456;DHT22;57916;51.996;5.180;2023-03-14T15:47:06;11.50;45.70
70456;DHT22;57916;51.996;5.180;2023-03-14T15:49:34;11.50;45.00
70456;DHT22;57916;51.996;5.180;2023-03-14T15:52:01;11.40;45.60
70456;DHT22;57916;51.996;5.180;2023-03-14T15:54:28;11.40;46.50
70456;DHT22;57916;51.996;5.180;2023-03-14T15:56:56;11.40;46.40
70456;DHT22;57916;51.996;5.180;2023-03-14T15:59:24;11.40;46.60
70456;DHT22;57916;51.996;5.180;2023-03-14T16:01:51;11.30;46.60
70456;DHT22;57916;51.996;5.180;2023-03-14T16:04:18;11.40;46.60
70456;DHT22;57916;51.996;5.180;2023-03-14T16:06:45;11.30;46.40
70456;DHT22;57916;51.996;5.180;2023-03-14T16:09:12;11.40;47.10
70456;DHT22;57916;51.996;5.180;2023-03-14T16:11:39;11.40;47.50
70456;DHT22;57916;51.996;5.180;2023-03-14T16:14:06;11.40;47.50
70456;DHT22;57916;51.996;5.180;2023-03-14T16:16:33;11.40;48.00
70456;DHT22;57916;51.996;5.180;2023-03-14T16:19:00;11.40;47.50
70456;DHT22;57916;51.996;5.180;2023-03-14T16:21:28;11.40;47.20
70456;DHT22;57916;51.996;5.180;2023-03-14T16:23:55;11.40;47.70
70456;DHT22;57916;51.996;5.180;2023-03-14T16:26:22;11.40;48.00
70456;DHT22;57916;51.996;5.180;2023-03-14T16:28:49;11.30;48.60
70456;DHT22;57916;51.996;5.180;2023-03-14T16:31:18;11.40;48.10
70456;DHT22;57916;51.996;5.180;2023-03-14T16:33:47;11.40;47.80
70456;DHT22;57916;51.996;5.180;2023-03-14T16:36:14;11.30;47.60
70456;DHT22;57916;51.996;5.180;2023-03-14T16:38:42;11.30;47.40
70456;DHT22;57916;51.996;5.180;2023-03-14T16:41:18;11.30;47.10
70456;DHT22;57916;51.996;5.180;2023-03-14T16:43:46;11.20;46.50
70456;DHT22;57916;51.996;5.180;2023-03-14T16:46:18;11.10;46.80
70456;DHT22;57916;51.996;5.180;2023-03-14T16:48:45;11.10;47.50
70456;DHT22;57916;51.996;5.180;2023-03-14T16:51:13;11.10;46.80
70456;DHT22;57916;51.996;5.180;2023-03-14T16:53:43;11.10;46.40